sensor_id;sensor_type;location;lat;lon;timestamp;P1;durP1;ratioP1;P2;durP2;ratioP2
55222;SDS011;41090;48.632;12.428;2023-03-01T00:01:13;20.37;;;16.67;;
55222;SDS011;41090;48.632;12.428;2023-03-01T00:03:38;23.33;;;16.67;;
55222;SDS011;41090;48.632;12.428;2023-03-01T00:06:04;20.97;;;16.63;;
55222;SDS011;41090;48.632;12.428;2023-03-01T00:08:29;20.37;;;16.87;;
55222;SDS011;41090;48.632;12.428;2023-03-01T00:11:09;20.03;;;16.07;;
55222;SDS011;41090;48.632;12.428;2023-03-01T00:13:35;21.23;;;16.07;;
55222;SDS011;41090;48.632;12.428;2023-03-01T00:16:03;21.80;;;16.87;;
55222;SDS011;41090;48.632;12.428;2023-03-01T00:18:29;20.20;;;16.00;;
55222;SDS011;41090;48.632;12.428;2023-03-01T00:20:55;20.40;;;15.70;;
55222;SDS011;41090;48.632;12.428;2023-03-01T00:23:21;20.77;;;16.03;;
55222;SDS011;41090;48.632;12.428;2023-03-01T00:25:47;20.57;;;17.07;;
55222;SDS011;41090;48.632;12.428;2023-03-01T00:28:12;23.40;;;16.50;;
55222;SDS011;41090;48.632;12.428;2023-03-01T00:30:37;20.87;;;16.10;;
55222;SDS011;41090;48.632;12.428;2023-03-01T00:33:03;19.63;;;16.07;;
55222;SDS011;41090;48.632;12.428;2023-03-01T00:35:28;21.30;;;16.27;;
55222;SDS011;41090;48.632;12.428;2023-03-01T00:38:01;19.93;;;15.57;;
55222;SDS011;41090;48.632;12.428;2023-03-01T00:40:27;21.53;;;16.47;;
55222;SDS011;41090;48.632;12.428;2023-03-01T00:42:53;21.63;;;16.53;;
55222;SDS011;41090;48.632;12.428;2023-03-01T00:45:18;20.83;;;16.27;;
55222;SDS011;41090;48.632;12.428;2023-03-01T00:47:44;21.07;;;16.27;;
55222;SDS011;41090;48.632;12.428;2023-03-01T00:50:09;21.83;;;17.07;;
55222;SDS011;41090;48.632;12.428;2023-03-01T00:52:35;24.10;;;16.63;;
55222;SDS011;41090;48.632;12.428;2023-03-01T00:55:00;22.47;;;16.53;;
55222;SDS011;41090;48.632;12.428;2023-03-01T00:57:25;21.60;;;16.10;;
55222;SDS011;41090;48.632;12.428;2023-03-01T00:59:50;21.73;;;16.57;;
55222;SDS011;41090;48.632;12.428;2023-03-01T01:02:17;20.53;;;16.27;;
55222;SDS011;41090;48.632;12.428;2023-03-01T01:04:42;22.67;;;16.37;;
55222;SDS011;41090;48.632;12.428;2023-03-01T01:07:07;21.77;;;17.40;;
55222;SDS011;41090;48.632;12.428;2023-03-01T01:09:33;22.20;;;17.47;;
55222;SDS011;41090;48.632;12.428;2023-03-01T01:11:58;21.40;;;15.97;;
55222;SDS011;41090;48.632;12.428;2023-03-01T01:14:23;21.17;;;16.47;;
55222;SDS011;41090;48.632;12.428;2023-03-01T01:16:48;23.00;;;16.93;;
55222;SDS011;41090;48.632;12.428;2023-03-01T01:19:14;23.10;;;17.57;;
55222;SDS011;41090;48.632;12.428;2023-03-01T01:21:40;22.00;;;16.60;;
55222;SDS011;41090;48.632;12.428;2023-03-01T01:24:08;25.73;;;17.10;;
55222;SDS011;41090;48.632;12.428;2023-03-01T01:26:33;20.93;;;16.83;;
55222;SDS011;41090;48.632;12.428;2023-03-01T01:28:59;21.40;;;17.03;;
55222;SDS011;41090;48.632;12.428;2023-03-01T01:31:25;20.50;;;17.10;;
55222;SDS011;41090;48.632;12.428;2023-03-01T01:33:50;22.47;;;16.80;;
55222;SDS011;41090;48.632;12.428;2023-03-01T01:36:16;25.73;;;17.27;;
55222;SDS011;41090;48.632;12.428;2023-03-01T01:38:41;23.27;;;17.67;;
55222;SDS011;41090;48.632;12.428;2023-03-01T01:41:07;23.40;;;17.23;;
55222;SDS011;41090;48.632;12.428;2023-03-01T01:43:34;24.87;;;17.30;;
55222;SDS011;41090;48.632;12.428;2023-03-01T01:46:04;20.90;;;16.67;;
55222;SDS011;41090;48.632;12.428;2023-03-01T01:49:31;23.40;;;16.63;;
55222;SDS011;41090;48.632;12.428;2023-03-01T01:51:25;21.67;;;17.33;;
55222;SDS011;41090;48.632;12.428;2023-03-01T01:53:57;23.40;;;17.33;;
55222;SDS011;41090;48.632;12.428;2023-03-01T01:56:33;21.43;;;16.57;;
55222;SDS011;41090;48.632;12.428;2023-03-01T01:58:58;25.23;;;18.40;;
55222;SDS011;41090;48.632;12.428;2023-03-01T02:01:24;22.37;;;17.93;;
55222;SDS011;41090;48.632;12.428;2023-03-01T02:03:49;22.67;;;17.37;;
55222;SDS011;41090;48.632;12.428;2023-03-01T02:06:17;22.30;;;17.13;;
55222;SDS011;41090;48.632;12.428;2023-03-01T02:08:44;19.93;;;16.13;;
55222;SDS011;41090;48.632;12.428;2023-03-01T02:11:10;23.27;;;16.60;;
55222;SDS011;41090;48.632;12.428;2023-03-01T02:13:36;22.47;;;16.40;;
55222;SDS011;41090;48.632;12.428;2023-03-01T02:16:05;22.33;;;16.57;;
55222;SDS011;41090;48.632;12.428;2023-03-01T02:18:33;23.00;;;15.60;;
55222;SDS011;41090;48.632;12.428;2023-03-01T02:23:23;20.90;;;15.97;;
55222;SDS011;41090;48.632;12.428;2023-03-01T02:25:52;24.03;;;17.03;;
55222;SDS011;41090;48.632;12.428;2023-03-01T02:28:39;20.67;;;15.03;;
55222;SDS011;41090;48.632;12.428;2023-03-01T02:31:05;23.33;;;16.33;;
55222;SDS011;41090;48.632;12.428;2023-03-01T02:33:50;20.77;;;16.27;;
55222;SDS011;41090;48.632;12.428;2023-03-01T02:36:17;21.97;;;17.60;;
55222;SDS011;41090;48.632;12.428;2023-03-01T02:38:43;22.63;;;16.53;;
55222;SDS011;41090;48.632;12.428;2023-03-01T02:41:09;22.73;;;16.77;;
55222;SDS011;41090;48.632;12.428;2023-03-01T02:43:36;23.17;;;17.10;;
55222;SDS011;41090;48.632;12.428;2023-03-01T02:46:17;20.00;;;15.67;;
55222;SDS011;41090;48.632;12.428;2023-03-01T02:48:48;23.70;;;17.53;;
55222;SDS011;41090;48.632;12.428;2023-03-01T02:51:23;21.33;;;16.83;;
55222;SDS011;41090;48.632;12.428;2023-03-01T02:56:18;27.87;;;18.63;;
55222;SDS011;41090;48.632;12.428;2023-03-01T02:58:44;26.63;;;17.60;;
55222;SDS011;41090;48.632;12.428;2023-03-01T03:01:16;21.90;;;16.27;;
55222;SDS011;41090;48.632;12.428;2023-03-01T03:03:41;23.43;;;17.10;;
55222;SDS011;41090;48.632;12.428;2023-03-01T03:06:07;21.70;;;16.90;;
55222;SDS011;41090;48.632;12.428;2023-03-01T03:08:32;20.73;;;15.73;;
55222;SDS011;41090;48.632;12.428;2023-03-01T03:10:57;21.10;;;17.10;;
55222;SDS011;41090;48.632;12.428;2023-03-01T03:13:22;23.33;;;17.83;;
55222;SDS011;41090;48.632;12.428;2023-03-01T03:15:53;22.63;;;16.87;;
55222;SDS011;41090;48.632;12.428;2023-03-01T03:18:18;22.73;;;17.30;;
55222;SDS011;41090;48.632;12.428;2023-03-01T03:20:44;24.00;;;16.73;;
55222;SDS011;41090;48.632;12.428;2023-03-01T03:23:09;23.00;;;17.57;;
55222;SDS011;41090;48.632;12.428;2023-03-01T03:25:34;23.43;;;17.17;;
55222;SDS011;41090;48.632;12.428;2023-03-01T03:28:02;23.07;;;16.73;;
55222;SDS011;41090;48.632;12.428;2023-03-01T03:30:34;22.33;;;17.20;;
55222;SDS011;41090;48.632;12.428;2023-03-01T03:33:02;27.70;;;19.73;;
55222;SDS011;41090;48.632;12.428;2023-03-01T03:35:32;24.83;;;18.77;;
55222;SDS011;41090;48.632;12.428;2023-03-01T03:38:01;24.17;;;17.10;;
55222;SDS011;41090;48.632;12.428;2023-03-01T03:40:36;23.73;;;18.43;;
55222;SDS011;41090;48.632;12.428;2023-03-01T03:43:03;23.33;;;17.27;;
55222;SDS011;41090;48.632;12.428;2023-03-01T03:45:28;23.30;;;17.93;;
55222;SDS011;41090;48.632;12.428;2023-03-01T03:47:53;24.20;;;17.77;;
55222;SDS011;41090;48.632;12.428;2023-03-01T03:50:19;23.40;;;17.87;;
55222;SDS011;41090;48.632;12.428;2023-03-01T03:52:44;24.47;;;18.50;;
55222;SDS011;41090;48.632;12.428;2023-03-01T03:55:10;24.73;;;17.27;;
55222;SDS011;41090;48.632;12.428;2023-03-01T03:57:36;22.50;;;17.10;;
55222;SDS011;41090;48.632;12.428;2023-03-01T04:00:03;23.50;;;17.03;;
55222;SDS011;41090;48.632;12.428;2023-03-01T04:02:30;25.63;;;19.20;;
55222;SDS011;41090;48.632;12.428;2023-03-01T04:04:55;23.00;;;16.83;;
55222;SDS011;41090;48.632;12.428;2023-03-01T04:07:20;25.57;;;18.40;;
55222;SDS011;41090;48.632;12.428;2023-03-01T04:09:45;24.33;;;17.83;;
55222;SDS011;41090;48.632;12.428;2023-03-01T04:12:11;22.70;;;17.93;;
55222;SDS011;41090;48.632;12.428;2023-03-01T04:14:36;27.37;;;19.17;;
55222;SDS011;41090;48.632;12.428;2023-03-01T04:17:01;27.80;;;17.63;;
55222;SDS011;41090;48.632;12.428;2023-03-01T04:19:29;28.67;;;20.17;;
55222;SDS011;41090;48.632;12.428;2023-03-01T04:22:04;27.30;;;18.87;;
55222;SDS011;41090;48.632;12.428;2023-03-01T04:24:35;28.40;;;18.80;;
55222;SDS011;41090;48.632;12.428;2023-03-01T04:27:00;25.13;;;18.80;;
55222;SDS011;41090;48.632;12.428;2023-03-01T04:29:26;26.47;;;19.73;;
55222;SDS011;41090;48.632;12.428;2023-03-01T04:31:52;28.97;;;19.40;;
55222;SDS011;41090;48.632;12.428;2023-03-01T04:34:17;23.23;;;17.67;;
55222;SDS011;41090;48.632;12.428;2023-03-01T04:36:43;26.63;;;18.77;;
55222;SDS011;41090;48.632;12.428;2023-03-01T04:39:08;23.93;;;17.60;;
55222;SDS011;41090;48.632;12.428;2023-03-01T04:41:37;23.13;;;17.10;;
55222;SDS011;41090;48.632;12.428;2023-03-01T04:44:03;26.73;;;18.93;;
55222;SDS011;41090;48.632;12.428;2023-03-01T04:46:29;26.03;;;18.63;;
55222;SDS011;41090;48.632;12.428;2023-03-01T04:48:54;24.00;;;17.60;;
55222;SDS011;41090;48.632;12.428;2023-03-01T04:51:19;25.17;;;18.10;;
55222;SDS011;41090;48.632;12.428;2023-03-01T04:53:45;25.13;;;18.77;;
55222;SDS011;41090;48.632;12.428;2023-03-01T04:56:10;23.70;;;18.40;;
55222;SDS011;41090;48.632;12.428;2023-03-01T04:58:36;29.17;;;20.00;;
55222;SDS011;41090;48.632;12.428;2023-03-01T05:01:01;26.40;;;19.30;;
55222;SDS011;41090;48.632;12.428;2023-03-01T05:03:26;28.10;;;19.93;;
55222;SDS011;41090;48.632;12.428;2023-03-01T05:05:53;25.27;;;18.83;;
55222;SDS011;41090;48.632;12.428;2023-03-01T05:08:18;26.03;;;19.60;;
55222;SDS011;41090;48.632;12.428;2023-03-01T05:10:44;28.07;;;19.87;;
55222;SDS011;41090;48.632;12.428;2023-03-01T05:13:11;27.53;;;20.13;;
55222;SDS011;41090;48.632;12.428;2023-03-01T05:15:38;30.97;;;21.43;;
55222;SDS011;41090;48.632;12.428;2023-03-01T05:18:03;27.30;;;19.90;;
55222;SDS011;41090;48.632;12.428;2023-03-01T05:20:29;27.67;;;19.47;;
55222;SDS011;41090;48.632;12.428;2023-03-01T05:22:55;28.67;;;19.73;;
55222;SDS011;41090;48.632;12.428;2023-03-01T05:25:21;25.27;;;19.70;;
55222;SDS011;41090;48.632;12.428;2023-03-01T05:27:46;29.43;;;20.87;;
55222;SDS011;41090;48.632;12.428;2023-03-01T05:30:12;27.70;;;19.93;;
55222;SDS011;41090;48.632;12.428;2023-03-01T05:32:47;28.30;;;20.13;;
55222;SDS011;41090;48.632;12.428;2023-03-01T05:35:13;28.47;;;20.77;;
55222;SDS011;41090;48.632;12.428;2023-03-01T05:37:45;29.30;;;19.77;;
55222;SDS011;41090;48.632;12.428;2023-03-01T05:40:12;33.57;;;20.90;;
55222;SDS011;41090;48.632;12.428;2023-03-01T05:42:44;28.70;;;20.17;;
55222;SDS011;41090;48.632;12.428;2023-03-01T05:45:09;27.97;;;19.67;;
55222;SDS011;41090;48.632;12.428;2023-03-01T05:47:35;30.60;;;21.20;;
55222;SDS011;41090;48.632;12.428;2023-03-01T05:50:00;27.97;;;19.53;;
55222;SDS011;41090;48.632;12.428;2023-03-01T05:52:25;30.27;;;19.23;;
55222;SDS011;41090;48.632;12.428;2023-03-01T05:54:51;26.73;;;18.90;;
55222;SDS011;41090;48.632;12.428;2023-03-01T05:57:16;26.87;;;19.87;;
55222;SDS011;41090;48.632;12.428;2023-03-01T05:59:41;28.30;;;20.10;;
55222;SDS011;41090;48.632;12.428;2023-03-01T06:02:06;32.07;;;21.23;;
55222;SDS011;41090;48.632;12.428;2023-03-01T06:04:31;25.67;;;18.83;;
55222;SDS011;41090;48.632;12.428;2023-03-01T06:06:57;28.27;;;20.43;;
55222;SDS011;41090;48.632;12.428;2023-03-01T06:09:22;25.90;;;19.70;;
55222;SDS011;41090;48.632;12.428;2023-03-01T06:11:47;25.20;;;18.60;;
55222;SDS011;41090;48.632;12.428;2023-03-01T06:14:12;29.23;;;20.20;;
55222;SDS011;41090;48.632;12.428;2023-03-01T06:16:39;29.73;;;20.87;;
55222;SDS011;41090;48.632;12.428;2023-03-01T06:19:04;29.70;;;20.97;;
55222;SDS011;41090;48.632;12.428;2023-03-01T06:21:30;27.00;;;20.20;;
55222;SDS011;41090;48.632;12.428;2023-03-01T06:23:55;29.80;;;21.37;;
55222;SDS011;41090;48.632;12.428;2023-03-01T06:26:20;28.27;;;20.77;;
55222;SDS011;41090;48.632;12.428;2023-03-01T06:28:46;26.90;;;20.33;;
55222;SDS011;41090;48.632;12.428;2023-03-01T06:31:11;25.73;;;19.40;;
55222;SDS011;41090;48.632;12.428;2023-03-01T06:33:36;24.33;;;18.50;;
55222;SDS011;41090;48.632;12.428;2023-03-01T06:36:02;27.30;;;19.47;;
55222;SDS011;41090;48.632;12.428;2023-03-01T06:38:27;29.00;;;20.90;;
55222;SDS011;41090;48.632;12.428;2023-03-01T06:40:52;29.80;;;21.90;;
55222;SDS011;41090;48.632;12.428;2023-03-01T06:43:19;33.97;;;22.17;;
55222;SDS011;41090;48.632;12.428;2023-03-01T06:45:44;38.77;;;24.13;;
55222;SDS011;41090;48.632;12.428;2023-03-01T06:48:10;38.33;;;25.57;;
55222;SDS011;41090;48.632;12.428;2023-03-01T06:50:35;36.43;;;25.03;;
55222;SDS011;41090;48.632;12.428;2023-03-01T06:53:01;35.00;;;24.07;;
55222;SDS011;41090;48.632;12.428;2023-03-01T06:55:26;32.83;;;24.73;;
55222;SDS011;41090;48.632;12.428;2023-03-01T06:57:55;32.90;;;23.47;;
55222;SDS011;41090;48.632;12.428;2023-03-01T07:00:21;31.70;;;23.60;;
55222;SDS011;41090;48.632;12.428;2023-03-01T07:02:47;31.30;;;23.70;;
55222;SDS011;41090;48.632;12.428;2023-03-01T07:05:12;31.93;;;24.20;;
55222;SDS011;41090;48.632;12.428;2023-03-01T07:07:40;31.47;;;24.43;;
55222;SDS011;41090;48.632;12.428;2023-03-01T07:10:05;29.80;;;23.07;;
55222;SDS011;41090;48.632;12.428;2023-03-01T07:12:31;27.10;;;21.43;;
55222;SDS011;41090;48.632;12.428;2023-03-01T07:14:56;29.77;;;21.50;;
55222;SDS011;41090;48.632;12.428;2023-03-01T07:17:21;29.37;;;22.77;;
55222;SDS011;41090;48.632;12.428;2023-03-01T07:19:46;26.90;;;20.57;;
55222;SDS011;41090;48.632;12.428;2023-03-01T07:22:12;27.50;;;21.37;;
55222;SDS011;41090;48.632;12.428;2023-03-01T07:24:37;26.30;;;21.33;;
55222;SDS011;41090;48.632;12.428;2023-03-01T07:27:02;25.23;;;20.27;;
55222;SDS011;41090;48.632;12.428;2023-03-01T07:29:27;27.30;;;21.03;;
55222;SDS011;41090;48.632;12.428;2023-03-01T07:31:54;26.67;;;21.27;;
55222;SDS011;41090;48.632;12.428;2023-03-01T07:34:19;24.87;;;21.63;;
55222;SDS011;41090;48.632;12.428;2023-03-01T07:36:44;24.13;;;20.30;;
55222;SDS011;41090;48.632;12.428;2023-03-01T07:39:10;24.17;;;19.93;;
55222;SDS011;41090;48.632;12.428;2023-03-01T07:41:35;26.33;;;20.33;;
55222;SDS011;41090;48.632;12.428;2023-03-01T07:44:01;23.23;;;19.60;;
55222;SDS011;41090;48.632;12.428;2023-03-01T07:46:26;22.77;;;19.37;;
55222;SDS011;41090;48.632;12.428;2023-03-01T07:48:51;22.27;;;18.47;;
55222;SDS011;41090;48.632;12.428;2023-03-01T07:51:16;21.07;;;18.37;;
55222;SDS011;41090;48.632;12.428;2023-03-01T07:53:41;22.33;;;19.33;;
55222;SDS011;41090;48.632;12.428;2023-03-01T07:56:08;21.50;;;19.03;;
55222;SDS011;41090;48.632;12.428;2023-03-01T07:58:34;24.60;;;19.67;;
55222;SDS011;41090;48.632;12.428;2023-03-01T08:01:04;21.73;;;18.83;;
55222;SDS011;41090;48.632;12.428;2023-03-01T08:03:29;24.20;;;19.10;;
55222;SDS011;41090;48.632;12.428;2023-03-01T08:05:54;22.60;;;19.20;;
55222;SDS011;41090;48.632;12.428;2023-03-01T08:08:20;22.70;;;19.63;;
55222;SDS011;41090;48.632;12.428;2023-03-01T08:10:45;21.10;;;18.80;;
55222;SDS011;41090;48.632;12.428;2023-03-01T08:13:10;22.67;;;17.80;;
55222;SDS011;41090;48.632;12.428;2023-03-01T08:15:35;22.70;;;18.53;;
55222;SDS011;41090;48.632;12.428;2023-03-01T08:18:01;22.00;;;18.37;;
55222;SDS011;41090;48.632;12.428;2023-03-01T08:20:26;22.47;;;19.47;;
55222;SDS011;41090;48.632;12.428;2023-03-01T08:22:51;21.17;;;18.97;;
55222;SDS011;41090;48.632;12.428;2023-03-01T08:25:17;24.80;;;19.43;;
55222;SDS011;41090;48.632;12.428;2023-03-01T08:27:42;26.13;;;19.87;;
55222;SDS011;41090;48.632;12.428;2023-03-01T08:30:07;22.70;;;18.77;;
55222;SDS011;41090;48.632;12.428;2023-03-01T08:32:39;21.00;;;18.37;;
55222;SDS011;41090;48.632;12.428;2023-03-01T08:35:04;21.50;;;19.20;;
55222;SDS011;41090;48.632;12.428;2023-03-01T08:37:30;21.70;;;19.13;;
55222;SDS011;41090;48.632;12.428;2023-03-01T08:39:57;19.53;;;17.43;;
55222;SDS011;41090;48.632;12.428;2023-03-01T08:42:22;22.20;;;19.03;;
55222;SDS011;41090;48.632;12.428;2023-03-01T08:44:48;22.63;;;20.20;;
55222;SDS011;41090;48.632;12.428;2023-03-01T08:47:13;22.40;;;19.37;;
55222;SDS011;41090;48.632;12.428;2023-03-01T08:49:39;21.20;;;19.00;;
55222;SDS011;41090;48.632;12.428;2023-03-01T08:52:04;22.80;;;20.07;;
55222;SDS011;41090;48.632;12.428;2023-03-01T08:54:29;23.83;;;21.37;;
55222;SDS011;41090;48.632;12.428;2023-03-01T08:56:55;22.77;;;20.43;;
55222;SDS011;41090;48.632;12.428;2023-03-01T08:59:20;25.60;;;22.80;;
55222;SDS011;41090;48.632;12.428;2023-03-01T09:01:45;25.60;;;22.90;;
55222;SDS011;41090;48.632;12.428;2023-03-01T09:04:11;20.30;;;18.20;;
55222;SDS011;41090;48.632;12.428;2023-03-01T09:06:36;22.60;;;20.23;;
55222;SDS011;41090;48.632;12.428;2023-03-01T09:09:03;20.77;;;18.60;;
55222;SDS011;41090;48.632;12.428;2023-03-01T09:11:28;23.13;;;20.63;;
55222;SDS011;41090;48.632;12.428;2023-03-01T09:13:53;21.03;;;18.83;;
55222;SDS011;41090;48.632;12.428;2023-03-01T09:16:19;19.73;;;16.67;;
55222;SDS011;41090;48.632;12.428;2023-03-01T09:18:48;21.37;;;19.07;;
55222;SDS011;41090;48.632;12.428;2023-03-01T09:21:14;19.37;;;17.47;;
55222;SDS011;41090;48.632;12.428;2023-03-01T09:23:41;20.27;;;18.10;;
55222;SDS011;41090;48.632;12.428;2023-03-01T09:26:07;19.43;;;17.43;;
55222;SDS011;41090;48.632;12.428;2023-03-01T09:28:35;19.60;;;17.63;;
55222;SDS011;41090;48.632;12.428;2023-03-01T09:31:01;19.37;;;17.57;;
55222;SDS011;41090;48.632;12.428;2023-03-01T09:33:30;18.77;;;16.97;;
55222;SDS011;41090;48.632;12.428;2023-03-01T09:35:56;19.27;;;17.27;;
55222;SDS011;41090;48.632;12.428;2023-03-01T09:38:22;19.10;;;17.27;;
55222;SDS011;41090;48.632;12.428;2023-03-01T09:40:47;18.33;;;16.53;;
55222;SDS011;41090;48.632;12.428;2023-03-01T09:43:15;18.80;;;16.90;;
55222;SDS011;41090;48.632;12.428;2023-03-01T09:45:44;17.90;;;16.10;;
55222;SDS011;41090;48.632;12.428;2023-03-01T09:48:12;18.33;;;16.63;;
55222;SDS011;41090;48.632;12.428;2023-03-01T09:50:40;18.83;;;16.80;;
55222;SDS011;41090;48.632;12.428;2023-03-01T09:53:08;17.53;;;15.93;;
55222;SDS011;41090;48.632;12.428;2023-03-01T10:00:51;17.80;;;16.00;;
55222;SDS011;41090;48.632;12.428;2023-03-01T10:03:17;17.27;;;15.43;;
55222;SDS011;41090;48.632;12.428;2023-03-01T10:08:30;16.73;;;15.00;;
55222;SDS011;41090;48.632;12.428;2023-03-01T10:10:58;17.40;;;15.70;;
55222;SDS011;41090;48.632;12.428;2023-03-01T10:16:20;16.63;;;15.02;;
55222;SDS011;41090;48.632;12.428;2023-03-01T10:18:47;17.30;;;15.70;;
55222;SDS011;41090;48.632;12.428;2023-03-01T10:21:19;17.50;;;15.73;;
55222;SDS011;41090;48.632;12.428;2023-03-01T10:23:44;18.17;;;16.27;;
55222;SDS011;41090;48.632;12.428;2023-03-01T10:31:03;18.55;;;16.85;;
55222;SDS011;41090;48.632;12.428;2023-03-01T10:33:37;18.17;;;16.48;;
55222;SDS011;41090;48.632;12.428;2023-03-01T10:36:04;17.23;;;15.55;;
55222;SDS011;41090;48.632;12.428;2023-03-01T10:38:31;17.55;;;15.35;;
55222;SDS011;41090;48.632;12.428;2023-03-01T10:43:22;16.40;;;14.77;;
55222;SDS011;41090;48.632;12.428;2023-03-01T10:45:48;16.27;;;14.75;;
55222;SDS011;41090;48.632;12.428;2023-03-01T10:50:41;16.42;;;14.82;;
55222;SDS011;41090;48.632;12.428;2023-03-01T10:53:16;16.98;;;15.45;;
55222;SDS011;41090;48.632;12.428;2023-03-01T10:55:44;16.45;;;14.85;;
55222;SDS011;41090;48.632;12.428;2023-03-01T10:58:19;15.40;;;13.90;;
55222;SDS011;41090;48.632;12.428;2023-03-01T11:00:45;15.93;;;14.43;;
55222;SDS011;41090;48.632;12.428;2023-03-01T11:03:12;16.95;;;15.40;;
55222;SDS011;41090;48.632;12.428;2023-03-01T11:05:50;15.20;;;13.73;;
55222;SDS011;41090;48.632;12.428;2023-03-01T11:08:15;16.75;;;15.15;;
55222;SDS011;41090;48.632;12.428;2023-03-01T11:11:00;15.13;;;13.75;;
55222;SDS011;41090;48.632;12.428;2023-03-01T11:13:28;15.55;;;14.15;;
55222;SDS011;41090;48.632;12.428;2023-03-01T11:16:28;15.23;;;13.93;;
55222;SDS011;41090;48.632;12.428;2023-03-01T11:18:45;15.32;;;14.07;;
55222;SDS011;41090;48.632;12.428;2023-03-01T11:21:20;15.57;;;14.18;;
55222;SDS011;41090;48.632;12.428;2023-03-01T11:23:45;16.30;;;14.80;;
55222;SDS011;41090;48.632;12.428;2023-03-01T11:26:12;15.55;;;14.15;;
55222;SDS011;41090;48.632;12.428;2023-03-01T11:28:38;15.73;;;14.32;;
55222;SDS011;41090;48.632;12.428;2023-03-01T11:31:06;15.85;;;14.35;;
55222;SDS011;41090;48.632;12.428;2023-03-01T11:38:42;15.60;;;14.20;;
55222;SDS011;41090;48.632;12.428;2023-03-01T11:41:12;15.23;;;13.82;;
55222;SDS011;41090;48.632;12.428;2023-03-01T11:56:40;14.32;;;12.93;;
55222;SDS011;41090;48.632;12.428;2023-03-01T12:04:02;14.23;;;12.93;;
55222;SDS011;41090;48.632;12.428;2023-03-01T12:09:04;13.88;;;12.50;;
55222;SDS011;41090;48.632;12.428;2023-03-01T12:14:10;14.60;;;13.27;;
55222;SDS011;41090;48.632;12.428;2023-03-01T12:19:29;15.30;;;13.88;;
55222;SDS011;41090;48.632;12.428;2023-03-01T12:22:09;14.82;;;13.50;;
55222;SDS011;41090;48.632;12.428;2023-03-01T12:25:41;15.75;;;14.23;;
55222;SDS011;41090;48.632;12.428;2023-03-01T12:30:26;15.90;;;14.38;;
55222;SDS011;41090;48.632;12.428;2023-03-01T12:38:32;15.02;;;13.52;;
55222;SDS011;41090;48.632;12.428;2023-03-01T12:41:04;13.95;;;12.65;;
55222;SDS011;41090;48.632;12.428;2023-03-01T12:51:22;14.50;;;13.18;;
55222;SDS011;41090;48.632;12.428;2023-03-01T12:53:48;15.05;;;13.57;;
55222;SDS011;41090;48.632;12.428;2023-03-01T12:56:15;14.90;;;13.40;;
55222;SDS011;41090;48.632;12.428;2023-03-01T13:01:19;15.27;;;13.67;;
55222;SDS011;41090;48.632;12.428;2023-03-01T13:04:05;14.97;;;13.47;;
55222;SDS011;41090;48.632;12.428;2023-03-01T13:11:56;14.63;;;13.23;;
55222;SDS011;41090;48.632;12.428;2023-03-01T13:16:47;14.70;;;13.30;;
55222;SDS011;41090;48.632;12.428;2023-03-01T13:21:43;14.43;;;13.03;;
55222;SDS011;41090;48.632;12.428;2023-03-01T13:29:43;13.83;;;12.43;;
55222;SDS011;41090;48.632;12.428;2023-03-01T13:32:23;15.00;;;12.77;;
55222;SDS011;41090;48.632;12.428;2023-03-01T13:34:52;14.83;;;13.40;;
55222;SDS011;41090;48.632;12.428;2023-03-01T13:37:19;15.63;;;14.13;;
55222;SDS011;41090;48.632;12.428;2023-03-01T13:39:44;15.20;;;13.67;;
55222;SDS011;41090;48.632;12.428;2023-03-01T13:44:53;15.07;;;13.60;;
55222;SDS011;41090;48.632;12.428;2023-03-01T13:47:20;14.33;;;13.07;;
55222;SDS011;41090;48.632;12.428;2023-03-01T13:52:23;14.80;;;13.20;;
55222;SDS011;41090;48.632;12.428;2023-03-01T13:54:52;14.83;;;12.77;;
55222;SDS011;41090;48.632;12.428;2023-03-01T13:57:20;14.43;;;13.00;;
55222;SDS011;41090;48.632;12.428;2023-03-01T13:59:47;15.30;;;13.80;;
55222;SDS011;41090;48.632;12.428;2023-03-01T14:02:12;15.57;;;13.23;;
55222;SDS011;41090;48.632;12.428;2023-03-01T14:04:41;13.90;;;12.43;;
55222;SDS011;41090;48.632;12.428;2023-03-01T14:09:42;14.13;;;12.70;;
55222;SDS011;41090;48.632;12.428;2023-03-01T14:14:56;13.87;;;12.50;;
55222;SDS011;41090;48.632;12.428;2023-03-01T14:22:37;13.77;;;12.37;;
55222;SDS011;41090;48.632;12.428;2023-03-01T14:25:06;14.13;;;12.73;;
55222;SDS011;41090;48.632;12.428;2023-03-01T14:27:41;13.77;;;12.37;;
55222;SDS011;41090;48.632;12.428;2023-03-01T14:30:21;13.60;;;12.30;;
55222;SDS011;41090;48.632;12.428;2023-03-01T14:33:02;13.67;;;12.27;;
55222;SDS011;41090;48.632;12.428;2023-03-01T14:35:28;13.70;;;12.33;;
55222;SDS011;41090;48.632;12.428;2023-03-01T14:37:54;13.50;;;12.20;;
55222;SDS011;41090;48.632;12.428;2023-03-01T14:40:20;14.57;;;12.87;;
55222;SDS011;41090;48.632;12.428;2023-03-01T14:42:46;13.60;;;12.23;;
55222;SDS011;41090;48.632;12.428;2023-03-01T14:45:11;14.43;;;13.03;;
55222;SDS011;41090;48.632;12.428;2023-03-01T14:47:37;13.47;;;12.17;;
55222;SDS011;41090;48.632;12.428;2023-03-01T14:50:21;13.77;;;12.30;;
55222;SDS011;41090;48.632;12.428;2023-03-01T14:52:48;14.93;;;13.53;;
55222;SDS011;41090;48.632;12.428;2023-03-01T14:57:43;13.80;;;12.40;;
55222;SDS011;41090;48.632;12.428;2023-03-01T15:00:29;15.23;;;12.80;;
55222;SDS011;41090;48.632;12.428;2023-03-01T15:02:55;16.37;;;12.07;;
55222;SDS011;41090;48.632;12.428;2023-03-01T15:05:28;13.27;;;11.97;;
55222;SDS011;41090;48.632;12.428;2023-03-01T15:07:54;12.50;;;11.37;;
55222;SDS011;41090;48.632;12.428;2023-03-01T15:10:21;13.87;;;12.37;;
55222;SDS011;41090;48.632;12.428;2023-03-01T15:12:47;14.43;;;13.03;;
55222;SDS011;41090;48.632;12.428;2023-03-01T15:15:19;14.73;;;13.23;;
55222;SDS011;41090;48.632;12.428;2023-03-01T15:17:48;13.13;;;11.80;;
55222;SDS011;41090;48.632;12.428;2023-03-01T15:20:17;13.33;;;12.03;;
55222;SDS011;41090;48.632;12.428;2023-03-01T15:22:45;14.20;;;12.53;;
55222;SDS011;41090;48.632;12.428;2023-03-01T15:25:15;13.93;;;12.53;;
55222;SDS011;41090;48.632;12.428;2023-03-01T15:27:43;14.20;;;12.77;;
55222;SDS011;41090;48.632;12.428;2023-03-01T15:30:17;15.07;;;13.47;;
55222;SDS011;41090;48.632;12.428;2023-03-01T15:32:42;15.27;;;13.67;;
55222;SDS011;41090;48.632;12.428;2023-03-01T15:37:52;15.83;;;14.13;;
55222;SDS011;41090;48.632;12.428;2023-03-01T15:40:18;15.33;;;13.73;;
55222;SDS011;41090;48.632;12.428;2023-03-01T15:42:43;14.63;;;13.03;;
55222;SDS011;41090;48.632;12.428;2023-03-01T15:47:38;15.47;;;13.73;;
55222;SDS011;41090;48.632;12.428;2023-03-01T15:50:04;16.00;;;14.30;;
55222;SDS011;41090;48.632;12.428;2023-03-01T15:52:33;18.03;;;14.50;;
55222;SDS011;41090;48.632;12.428;2023-03-01T15:55:02;16.40;;;14.70;;
55222;SDS011;41090;48.632;12.428;2023-03-01T15:57:28;16.03;;;14.07;;
55222;SDS011;41090;48.632;12.428;2023-03-01T15:59:53;16.57;;;14.87;;
55222;SDS011;41090;48.632;12.428;2023-03-01T16:02:21;20.77;;;17.60;;
55222;SDS011;41090;48.632;12.428;2023-03-01T16:04:47;19.53;;;17.00;;